Time;durP1;ratioP1;P1;durP2;ratioP2;P2;SDS_P1;SDS_P2;PMS_P1;PMS_P2;Temp;Humidity;BMP_temperature;BMP_pressure;BME280_temperature;BME280_humidity;BME280_pressure;Samples;Min_cycle;Max_cycle;Signal;HPM_P1;HPM_P2
2022/03/11 00:01:09;;;;;;;14.52;9.52;;;6.00;99.90;;;;;;6195250;23;20123;-94
2022/03/11 00:13:11;;;;;;;13.80;10.02;;;;;;;;;;6238663;22;20020;-93
2022/03/11 00:19:18;;;;;;;15.27;11.13;;;5.70;99.90;;;;;;6225888;23;20020;-93
2022/03/11 00:21:57;;;;;;;;;;;;;;;;;;6153961;23;20098;-91
2022/03/11 00:24:36;;;;;;;17.05;11.32;;;;;;;;;;6182784;23;19919;-94
2022/03/11 00:27:08;;;;;;;17.63;10.73;;;;;;;;;;6233317;23;20020;-90
2022/03/11 00:33:10;;;;;;;18.83;10.68;;;;;;;;;;6180636;23;20045;-89
2022/03/11 00:46:57;;;;;;;20.67;13.13;;;;;;;;;;6247698;23;20031;-91
2022/03/11 00:49:24;;;;;;;20.27;15.05;;;;;;;;;;6220930;23;20086;-93
2022/03/11 00:51:57;;;;;;;18.13;13.27;;;;;;;;;;6190968;23;20035;-94
2022/03/11 00:54:31;;;;;;;20.33;15.13;;;;;;;;;;6188195;23;20024;-88
2022/03/11 00:56:57;;;;;;;;;;;;;;;;;;6211167;23;20024;-90
2022/03/11 00:59:34;;;;;;;19.27;14.32;;;;;;;;;;6213268;23;19916;-90
2022/03/11 01:02:09;;;;;;;20.33;13.90;;;;;;;;;;6184718;23;20042;-93
2022/03/11 01:04:39;;;;;;;22.52;14.88;;;;;;;;;;6213819;23;20048;-93
2022/03/11 01:07:30;;;;;;;27.42;15.75;;;;;;;;;;6236951;23;20051;-93
2022/03/11 01:13:18;;;;;;;23.88;16.30;;;;;;;;;;6211688;23;20028;-94
2022/03/11 01:15:50;;;;;;;26.33;16.85;;;;;;;;;;6212825;23;20396;-92
2022/03/11 01:18:32;;;;;;;26.65;17.77;;;;;;;;;;6214187;23;20034;-93
2022/03/11 01:21:16;;;;;;;24.75;17.75;;;;;;;;;;6212861;23;20028;-92
2022/03/11 01:23:50;;;;;;;34.33;19.15;;;;;;;;;;6244284;23;20322;-93
2022/03/11 01:26:41;;;;;;;27.10;17.90;;;;;;;;;;6136567;23;20021;-94
2022/03/11 01:29:38;;;;;;;29.35;19.55;;;;;;;;;;6184284;23;20017;-92
2022/03/11 01:32:44;;;;;;;28.48;18.52;;;;;;;;;;6186951;23;20341;-90
2022/03/11 01:35:26;;;;;;;28.27;19.15;;;;;;;;;;6187965;23;20031;-95
2022/03/11 01:37:52;;;;;;;33.50;20.25;;;;;;;;;;6164015;23;20021;-91
2022/03/11 01:40:53;;;;;;;28.40;20.50;;;;;;;;;;6158188;23;20024;-92
2022/03/11 01:43:37;;;;;;;28.55;20.02;;;;;;;;;;6183082;23;20031;-93
2022/03/11 01:49:33;;;;;;;30.38;20.08;;;;;;;;;;6240057;22;20035;-91
2022/03/11 01:55:55;;;;;;;37.00;22.00;;;;;;;;;;6128749;23;20123;-90
2022/03/11 01:58:24;;;;;;;32.05;20.88;;;;;;;;;;6127094;23;20029;-93
2022/03/11 02:00:50;;;;;;;35.40;20.90;;;;;;;;;;6129698;23;20029;-94
2022/03/11 02:03:25;;;;;;;30.27;22.02;;;;;;;;;;6126371;23;20020;-89
2022/03/11 02:08:26;;;;;;;34.88;21.13;;;;;;;;;;6243693;22;20498;-92
2022/03/11 02:10:56;;;;;;;34.85;21.65;;;;;;;;;;6215383;23;20262;-89
2022/03/11 02:16:58;;;;;;;33.63;22.50;;;4.70;99.90;;;;;;6249599;23;20082;-88
2022/03/11 02:19:24;;;;;;;30.58;21.45;;;;;;;;;;6211922;23;20039;-96
2022/03/11 02:22:22;;;;;;;29.73;20.70;;;;;;;;;;6220226;23;20471;-91
2022/03/11 02:24:53;;;;;;;31.75;20.48;;;;;;;;;;6243904;23;20022;-93
2022/03/11 02:27:19;;;;;;;29.42;20.33;;;;;;;;;;6236626;23;20027;-90
2022/03/11 02:29:45;;;;;;;34.00;22.08;;;;;;;;;;6216399;23;20012;-96
2022/03/11 02:32:34;;;;;;;33.90;22.67;;;;;;;;;;6244173;23;20016;-89
2022/03/11 02:35:29;;;;;;;35.45;23.60;;;;;;;;;;6220619;23;20016;-90
2022/03/11 02:38:07;;;;;;;31.85;23.30;;;;;;;;;;6248421;23;20024;-95
2022/03/11 03:17:42;;;;;;;37.33;22.48;;;;;;;;;;6249021;23;20019;-94
2022/03/11 03:24:14;;;;;;;35.63;24.25;;;;;;;;;;6245789;23;20023;-94
2022/03/11 03:27:31;;;;;;;33.25;21.20;;;4.10;99.90;;;;;;6219916;23;20150;-90
2022/03/11 03:33:50;;;;;;;33.75;22.00;;;;;;;;;;6185056;23;20025;-91
2022/03/11 03:36:20;;;;;;;32.88;23.48;;;;;;;;;;6129788;23;20029;-91
2022/03/11 03:38:47;;;;;;;32.60;22.20;;;;;;;;;;6155828;23;20029;-89
2022/03/11 03:41:17;;;;;;;35.97;23.23;;;;;;;;;;6132994;23;20017;-88
2022/03/11 03:44:02;;;;;;;32.40;22.77;;;;;;;;;;6134489;23;20056;-91
2022/03/11 03:46:35;;;;;;;35.25;23.45;;;;;;;;;;6132958;23;20032;-87
2022/03/11 03:49:04;;;;;;;29.83;20.52;;;;;;;;;;6136061;23;20437;-90
2022/03/11 03:51:40;;;;;;;30.67;21.67;;;;;;;;;;6156762;23;20028;-90
2022/03/11 03:59:57;;;;;;;31.55;21.95;;;;;;;;;;6156684;23;20064;-90
2022/03/11 04:05:39;;;;;;;29.13;22.00;;;;;;;;;;6224791;23;20071;-93
2022/03/11 04:14:30;;;;;;;32.45;20.92;;;;;;;;;;6217651;23;20080;-91
2022/03/11 04:17:15;;;;;;;35.65;22.02;;;;;;;;;;6218082;23;20086;-90
2022/03/11 04:19:48;;;;;;;31.25;21.63;;;;;;;;;;6212642;23;20107;-90
2022/03/11 04:22:48;;;;;;;31.65;21.58;;;;;;;;;;6212776;23;20058;-89
2022/03/11 04:25:16;;;;;;;31.83;20.75;;;;;;;;;;6240495;23;20026;-93
2022/03/11 04:30:50;;;;;;;32.42;22.85;;;;;;;;;;6234504;22;20027;-94
2022/03/11 04:46:14;;;;;;;31.15;22.98;;;;;;;;;;6133374;22;20021;-89
2022/03/11 04:48:47;;;;;;;30.77;21.83;;;;;;;;;;6269100;22;20019;-94
2022/03/11 04:51:43;;;;;;;31.40;19.77;;;;;;;;;;6268667;22;20444;-90
2022/03/11 04:54:09;;;;;;;31.25;21.25;;;;;;;;;;6239814;22;20803;-90
2022/03/11 04:56:51;;;;;;;30.75;20.08;;;;;;;;;;6242498;22;20031;-92
2022/03/11 04:59:17;;;;;;;30.17;20.02;;;;;;;;;;6228309;22;20676;-91
2022/03/11 05:02:03;;;;;;;40.45;21.02;;;;;;;;;;6191479;23;20081;-92
2022/03/11 05:05:05;;;;;;;30.63;19.05;;;;;;;;;;6220723;23;20016;-92
2022/03/11 05:07:49;;;;;;;37.38;20.95;;;;;;;;;;6197783;23;20020;-94
2022/03/11 05:16:02;;;;;;;30.80;20.52;;;;;;;;;;6245576;22;20415;-92
2022/03/11 05:34:25;;;;;;;30.90;21.13;;;;;;;;;;6050708;23;20046;-92
2022/03/11 05:39:26;;;;;;;30.83;19.23;;;;;;;;;;6248532;23;20077;-91
2022/03/11 05:42:08;;;;;;;28.05;20.52;;;;;;;;;;6194878;23;20274;-92
2022/03/11 05:48:13;;;;;;;30.73;20.23;;;;;;;;;;6234287;22;21253;-93
2022/03/11 05:51:08;;;;;;;34.08;20.55;;;;;;;;;;6187346;23;20120;-91
2022/03/11 05:53:34;;;;;;;;;;;;;;;;;;6178836;23;20031;-90
2022/03/11 05:56:05;;;;;;;29.25;18.67;;;;;;;;;;6155907;23;19951;-90
2022/03/11 05:58:31;;;;;;;30.05;18.00;;;;;;;;;;6179801;23;20020;-91
2022/03/11 06:00:57;;;;;;;29.77;18.65;;;;;;;;;;6154962;23;20023;-91
2022/03/11 06:03:32;;;;;;;27.02;18.63;;;;;;;;;;6202941;23;20075;-91
2022/03/11 06:18:39;;;;;;;38.05;21.88;;;;;;;;;;6161332;23;20025;-89
2022/03/11 06:21:05;;;;;;;37.47;21.65;;;;;;;;;;6155593;23;20032;-90
2022/03/11 06:23:47;;;;;;;31.15;20.70;;;;;;;;;;6127867;23;20461;-90
2022/03/11 06:35:13;;;;;;;32.85;16.45;;;;;;;;;;6205945;23;20024;-94
2022/03/11 06:44:31;;;;;;;33.58;18.70;;;;;;;;;;6238915;23;20019;-92
2022/03/11 06:57:11;;;;;;;25.67;14.95;;;;;;;;;;6240651;23;20016;-92
2022/03/11 06:59:37;;;;;;;32.22;15.77;;;;;;;;;;6227750;23;20050;-90
2022/03/11 07:08:28;;;;;;;26.45;16.05;;;;;;;;;;6240193;23;20039;-91
2022/03/11 07:46:23;;;;;;;27.95;16.40;;;;;;;;;;6239530;22;20807;-90
2022/03/11 07:48:50;;;;;;;29.25;18.33;;;;;;;;;;6240182;22;20015;-91
2022/03/11 07:54:20;;;;;;;29.13;16.30;;;;;;;;;;6270498;22;20353;-90
2022/03/11 07:56:46;;;;;;;29.52;16.75;;;;;;;;;;6263700;22;20023;-91
2022/03/11 07:59:12;;;;;;;24.30;16.40;;;;;;;;;;6241471;22;20012;-90
2022/03/11 08:07:17;;;;;;;28.73;17.08;;;;;;;;;;6260052;22;20355;-91
2022/03/11 08:09:43;;;;;;;27.30;16.73;;;;;;;;;;6242003;22;20026;-92
2022/03/11 08:12:09;;;;;;;26.73;17.05;;;;;;;;;;6221053;23;20039;-93
2022/03/11 08:14:36;;;;;;;30.08;17.50;;;;;;;;;;6156908;23;20024;-91
2022/03/11 08:19:37;;;;;;;24.55;16.80;;;;;;;;;;6191689;23;20107;-92
2022/03/11 08:22:04;;;;;;;27.65;16.80;;;;;;;;;;6156716;23;20021;-92
2022/03/11 08:24:36;;;;;;;25.30;17.55;;;;;;;;;;6158922;23;20016;-90
2022/03/11 08:27:03;;;;;;;30.20;17.30;;;;;;;;;;6153116;23;20450;-91
2022/03/11 08:32:55;;;;;;;24.70;16.17;;;;;;;;;;6248800;22;20020;-89
2022/03/11 08:39:08;;;;;;;30.90;17.55;;;;;;;;;;6229614;23;20062;-91
2022/03/11 08:41:35;;;;;;;25.38;18.27;;;;;;;;;;6244227;22;20077;-91
2022/03/11 08:47:51;;;;;;;24.17;14.88;;;;;;;;;;6272236;22;20014;-92
2022/03/11 08:50:53;;;;;;;30.08;18.25;;;;;;;;;;6191743;23;20122;-93
2022/03/11 08:57:14;;;;;;;29.90;17.27;;;;;;;;;;6271877;22;20014;-92
2022/03/11 09:13:15;;;;;;;26.23;17.33;;;;;;;;;;6227053;22;20035;-89
2022/03/11 09:16:04;;;;;;;30.00;18.48;;;;;;;;;;6231933;23;20039;-92
2022/03/11 09:49:39;;;;;;;27.48;16.85;;;;;;;;;;6227989;22;20059;-93
2022/03/11 09:55:54;;;;;;;23.30;15.70;;;;;;;;;;6241930;23;20102;-93
2022/03/11 10:04:36;;;;;;;24.58;16.98;;;;;;;;;;6148177;23;20091;-91
2022/03/11 10:36:58;;;;;;;25.83;13.88;;;;;;;;;;6211454;23;20059;-92
2022/03/11 10:39:44;;;;;;;18.83;11.18;;;;;;;;;;6187140;23;20027;-93
2022/03/11 10:45:56;;;;;;;22.30;12.75;;;;;;;;;;6252400;22;20086;-93
2022/03/11 10:48:41;;;;;;;22.33;11.88;;;;;;;;;;6135601;23;20511;-92
2022/03/11 10:51:24;;;;;;;;;;;;;;;;;;;;;
2022/03/11 11:19:48;;;;;;;19.70;13.02;;;;;;;;;;6161102;22;20031;-92
2022/03/11 11:50:43;;;;;;;18.75;13.18;;;;;;;;;;6213437;22;20034;-92
2022/03/11 11:53:31;;;;;;;20.33;12.93;;;;;;;;;;6211627;22;20030;-93
2022/03/11 11:56:12;;;;;;;;;;;;;;;;;;6216977;22;20340;-93
2022/03/11 12:18:36;;;;;;;14.63;11.43;;;11.70;99.90;;;;;;6176583;22;20054;-94
2022/03/11 12:24:32;;;;;;;18.70;12.30;;;;;;;;;;6218392;22;20036;31
2022/03/11 12:31:06;;;;;;;21.83;11.32;;;;;;;;;;6176717;23;20540;-93
2022/03/11 12:37:15;;;;;;;18.45;11.52;;;;;;;;;;6270482;22;20034;-91
2022/03/11 12:42:37;;;;;;;15.60;11.15;;;;;;;;;;6220391;22;20097;-94
2022/03/11 12:45:04;;;;;;;16.20;11.40;;;;;;;;;;6217877;22;20341;-93
2022/03/11 12:47:51;;;;;;;19.27;11.95;;;12.50;99.90;;;;;;6218417;22;20095;-92
2022/03/11 13:03:06;;;;;;;14.10;11.65;;;;;;;;;;6227004;22;20035;-92
2022/03/11 13:40:26;;;;;;;11.95;8.73;;;;;;;;;;6145055;23;20347;-91
2022/03/11 13:42:57;;;;;;;17.70;8.88;;;;;;;;;;6120558;23;20017;-93
2022/03/11 13:45:30;;;;;;;13.15;8.50;;;;;;;;;;6119423;23;20025;-93
2022/03/11 13:57:54;;;;;;;11.30;8.52;;;12.00;97.60;;;;;;6229179;22;20190;-92
2022/03/11 14:00:26;;;;;;;14.15;8.20;;;;;;;;;;6161517;23;20028;-91
2022/03/11 14:03:17;;;;;;;17.52;8.00;;;;;;;;;;6154217;23;20443;-95
2022/03/11 14:16:54;;;;;;;12.82;7.35;;;;;;;;;;6229146;23;20034;-91
2022/03/11 14:23:27;;;;;;;13.73;7.88;;;;;;;;;;6233838;22;20077;-89
2022/03/11 14:25:54;;;;;;;14.15;7.65;;;;;;;;;;6207072;23;20020;-92
2022/03/11 14:53:50;;;;;;;16.55;5.80;;;;;;;;;;6213020;23;20028;-92
2022/03/11 15:16:46;;;;;;;16.35;7.10;;;;;;;;;;6207214;23;20033;-88
2022/03/11 15:19:13;;;;;;;9.77;6.88;;;;;;;;;;6181413;23;20017;-85
2022/03/11 15:21:48;;;;;;;10.90;7.10;;;;;;;;;;6207779;23;20449;-87
2022/03/11 15:24:20;;;;;;;12.82;8.15;;;;;;;;;;6204616;23;20375;-87
2022/03/11 15:29:51;;;;;;;9.60;7.50;;;;;;;;;;6231166;23;20020;-85
2022/03/11 15:32:21;;;;;;;18.63;7.10;;;;;;;;;;6209442;23;20373;-86
2022/03/11 15:38:06;;;;;;;13.65;6.85;;;;;;;;;;6208991;23;20026;-86
2022/03/11 15:40:45;;;;;;;15.95;6.68;;;;;;;;;;6234708;23;20095;-88
2022/03/11 15:48:29;;;;;;;12.07;7.97;;;;;;;;;;6236857;23;20035;-88
2022/03/11 15:50:55;;;;;;;9.88;7.10;;;;;;;;;;6186326;23;20555;-89
2022/03/11 15:53:33;;;;;;;17.73;7.32;;;;;;;;;;6186660;23;20028;-88
2022/03/11 15:56:07;;;;;;;9.15;6.88;;;10.40;99.90;;;;;;6158304;23;20016;-88
2022/03/11 16:01:50;;;;;;;16.95;7.68;;;;;;;;;;6207028;23;20070;-87
2022/03/11 16:04:28;;;;;;;11.88;7.25;;;;;;;;;;6202292;23;20020;-88
2022/03/11 16:07:10;;;;;;;14.57;8.82;;;;;;;;;;6211195;23;20454;-84
2022/03/11 16:09:36;;;;;;;19.65;8.00;;;;;;;;;;6217342;23;20020;-85
2022/03/11 16:12:02;;;;;;;11.88;7.20;;;;;;;;;;6224968;22;20036;-83
2022/03/11 16:14:47;;;;;;;16.27;7.40;;;;;;;;;;6195713;23;20024;-86
2022/03/11 16:17:21;;;;;;;19.20;8.35;;;;;;;;;;6181162;23;20056;-87
2022/03/11 16:19:47;;;;;;;17.60;10.52;;;;;;;;;;6151865;23;20024;-86
2022/03/11 16:22:13;;;;;;;14.23;8.63;;;;;;;;;;6206667;23;20415;-85
2022/03/11 16:24:39;;;;;;;14.95;7.57;;;;;;;;;;6174880;23;20345;-85
2022/03/11 16:27:06;;;;;;;17.52;7.65;;;;;;;;;;6154048;23;20024;-86
2022/03/11 16:29:32;;;;;;;13.15;7.30;;;;;;;;;;6175988;23;20103;-86
2022/03/11 16:31:58;;;;;;;16.15;8.82;;;;;;;;;;6204681;23;20016;-87
2022/03/11 16:34:31;;;;;;;13.55;7.30;;;;;;;;;;6131229;23;20059;-88
2022/03/11 16:36:57;;;;;;;18.25;8.15;;;;;;;;;;6177767;23;20031;-86
2022/03/11 16:39:58;;;;;;;14.20;9.00;;;;;;;;;;6179605;23;20091;-85
2022/03/11 16:42:33;;;;;;;11.88;6.72;;;;;;;;;;6176439;23;20019;-87
2022/03/11 16:45:11;;;;;;;14.35;7.47;;;;;;;;;;6154243;23;20031;-88
2022/03/11 16:47:38;;;;;;;13.80;7.57;;;;;;;;;;6176515;23;20027;-84
2022/03/11 16:50:05;;;;;;;9.98;7.25;;;;;;;;;;6178487;23;20350;-85
2022/03/11 16:52:32;;;;;;;13.40;8.13;;;;;;;;;;6203337;23;20021;-92
2022/03/11 16:54:58;;;;;;;16.42;8.23;;;;;;;;;;6127314;23;20483;-88
2022/03/11 16:57:25;;;;;;;11.80;8.45;;;;;;;;;;6126711;23;20440;-85
2022/03/11 16:59:51;;;;;;;12.52;7.22;;;;;;;;;;6179142;23;20481;-89
2022/03/11 17:02:17;;;;;;;15.68;7.55;;;;;;;;;;6149596;22;20029;-89
2022/03/11 17:05:17;;;;;;;16.20;8.38;;;;;;;;;;6186634;23;20040;-86
2022/03/11 17:07:59;;;;;;;14.30;8.05;;;;;;;;;;6180441;23;20111;-86
2022/03/11 17:14:18;;;;;;;14.95;8.57;;;;;;;;;;6207382;23;20083;-87
2022/03/11 17:16:48;;;;;;;18.67;7.63;;;;;;;;;;6204913;23;20052;-89
2022/03/11 17:19:27;;;;;;;15.65;7.40;;;;;;;;;;6178860;23;20062;-88
2022/03/11 17:21:54;;;;;;;13.43;7.55;;;;;;;;;;6179968;23;20330;-92
2022/03/11 17:24:20;;;;;;;14.57;8.60;;;;;;;;;;6203497;23;20120;-88
2022/03/11 17:26:47;;;;;;;13.80;8.18;;;;;;;;;;6207244;23;20024;-88
2022/03/11 17:29:20;;;;;;;15.45;7.95;;;;;;;;;;6203853;23;20027;-90
2022/03/11 17:31:47;;;;;;;15.70;8.30;;;;;;;;;;6206995;23;20099;-89
2022/03/11 17:34:26;;;;;;;16.48;8.88;;;;;;;;;;6177664;23;20445;-88
2022/03/11 17:36:52;;;;;;;12.98;7.45;;;;;;;;;;6206917;23;20115;-85
2022/03/11 17:39:19;;;;;;;16.75;9.82;;;;;;;;;;6203419;23;20013;-88
2022/03/11 17:41:48;;;;;;;16.95;9.88;;;;;;;;;;6178965;23;20040;-87
2022/03/11 17:44:40;;;;;;;14.60;7.50;;;;;;;;;;6174424;23;20036;-92
2022/03/11 17:47:23;;;;;;;18.02;8.52;;;;;;;;;;6176665;23;20128;-89
2022/03/11 18:10:28;;;;;;;20.90;7.10;;;;;;;;;;6204086;23;20020;-87
2022/03/11 18:13:11;;;;;;;19.35;9.23;;;;;;;;;;6202668;23;20104;-88
2022/03/11 18:18:50;;;;;;;14.52;9.60;;;;;;;;;;6202295;23;20027;-87
2022/03/11 18:21:17;;;;;;;19.40;8.05;;;;;;;;;;6205211;23;20226;-87
2022/03/11 18:27:06;;;;;;;20.35;8.30;;;;;;;;;;6230747;23;20015;-85
2022/03/11 18:29:49;;;;;;;14.20;8.02;;;;;;;;;;6194044;23;20458;-86
2022/03/11 18:35:25;;;;;;;15.27;9.32;;;;;;;;;;6201992;23;20055;-87
2022/03/11 18:37:51;;;;;;;17.45;8.77;;;;;;;;;;6204120;23;20016;-85
2022/03/11 18:40:18;;;;;;;16.13;8.75;;;;;;;;;;6202255;23;20020;-86
2022/03/11 18:42:54;;;;;;;15.45;9.05;;;;;;;;;;6201381;23;20044;-86
2022/03/11 18:45:21;;;;;;;17.67;8.57;;;;;;;;;;6175152;23;20322;-86
2022/03/11 18:47:50;;;;;;;17.15;8.02;;;;;;;;;;6202668;23;20039;-86
2022/03/11 18:50:36;;;;;;;16.98;10.45;;;;;;;;;;6199345;23;20032;-88
2022/03/11 18:53:07;;;;;;;19.13;8.63;;;;;;;;;;6173619;23;20028;-86
2022/03/11 18:55:36;;;;;;;23.88;9.38;;;;;;;;;;6174441;23;20465;-86
2022/03/11 18:58:06;;;;;;;13.60;7.97;;;;;;;;;;6150814;23;20016;-87
2022/03/11 19:00:48;;;;;;;11.70;7.95;;;;;;;;;;6198458;23;20024;-87
2022/03/11 19:13:58;;;;;;;13.85;7.85;;;;;;;;;;6234267;22;20027;-86
2022/03/11 19:16:44;;;;;;;21.48;8.30;;;;;;;;;;6201780;23;20020;-86
2022/03/11 19:19:13;;;;;;;15.15;7.75;;;;;;;;;;6151500;23;20035;-86
2022/03/11 19:21:47;;;;;;;18.30;9.15;;;;;;;;;;6204641;23;20069;-87
2022/03/11 19:24:17;;;;;;;15.77;6.93;;;;;;;;;;6227250;23;20869;-86
2022/03/11 19:26:43;;;;;;;13.55;7.60;;;;;;;;;;6178351;23;20827;-87
2022/03/11 19:29:10;;;;;;;13.10;7.50;;;;;;;;;;6229039;23;20349;-87
2022/03/11 19:32:05;;;;;;;13.05;7.05;;;;;;;;;;6204768;23;20350;-85
2022/03/11 19:34:41;;;;;;;12.32;7.32;;;;;;;;;;6201733;23;20020;-86
2022/03/11 19:37:20;;;;;;;15.40;7.47;;;;;;;;;;6229051;23;20024;-86
2022/03/11 19:39:47;;;;;;;16.10;7.47;;;;;;;;;;6202944;23;20028;-86
2022/03/11 19:42:33;;;;;;;12.75;7.38;;;;;;;;;;6229036;23;20028;-86
2022/03/11 19:45:01;;;;;;;15.90;6.88;;;;;;;;;;6179791;23;20518;-85
2022/03/11 19:47:27;;;;;;;15.57;7.57;;;;;;;;;;6244650;22;20027;-85
2022/03/11 19:50:10;;;;;;;13.63;7.13;;;;;;;;;;6211902;22;20022;-86
2022/03/11 19:52:49;;;;;;;12.32;7.10;;;;;;;;;;6233887;22;20031;-88
2022/03/11 19:55:18;;;;;;;14.57;7.03;;;;;;;;;;6212057;22;20039;-87
2022/03/11 19:57:57;;;;;;;13.15;7.50;;;;;;;;;;6233425;22;20027;-86
2022/03/11 20:00:25;;;;;;;14.35;7.30;;;;;;;;;;6266338;22;20093;-86
2022/03/11 20:02:53;;;;;;;14.43;7.55;;;;;;;;;;6267058;22;20027;-86
2022/03/11 20:05:19;;;;;;;14.02;7.32;;;;;;;;;;6242819;22;20102;-86
2022/03/11 20:07:54;;;;;;;13.45;6.75;;;;;;;;;;6238291;22;20020;-85
2022/03/11 20:11:18;;;;;;;13.60;7.10;;;;;;;;;;6259883;22;20506;-86
2022/03/11 20:17:35;;;;;;;14.43;7.13;;;;;;;;;;6231973;22;20026;-87
2022/03/11 20:20:48;;;;;;;16.05;7.00;;;;;;;;;;6261546;22;20016;-86
2022/03/11 20:27:23;;;;;;;13.27;6.45;;;;;;;;;;6260395;22;20605;-86
2022/03/11 20:30:08;;;;;;;17.20;7.05;;;;;;;;;;6236493;22;20030;-86
2022/03/11 20:35:11;;;;;;;12.30;7.15;;;;;;;;;;6257294;22;20023;-87
2022/03/11 20:37:41;;;;;;;12.02;6.75;;;;;;;;;;6265642;22;20035;-84
2022/03/11 20:40:13;;;;;;;16.60;7.88;;;;;;;;;;6266979;22;21012;-86
2022/03/11 20:42:51;;;;;;;16.17;8.18;;;;;;;;;;6241550;22;20233;-86
2022/03/11 20:45:43;;;;;;;11.23;7.40;;;;;;;;;;6231429;23;20058;-88
2022/03/11 20:48:13;;;;;;;13.85;7.95;;;;;;;;;;6222780;23;20031;-86
2022/03/11 20:50:41;;;;;;;16.10;7.45;;;;;;;;;;6160160;23;20020;-86
2022/03/11 20:53:07;;;;;;;17.48;7.18;;;;;;;;;;6179567;23;20024;-86
2022/03/11 20:55:34;;;;;;;16.13;7.20;;;;;;;;;;6180921;23;20020;-86
2022/03/11 20:58:03;;;;;;;16.02;7.72;;;;;;;;;;6178811;23;20020;-87
2022/03/11 21:00:55;;;;;;;17.40;7.38;;;;;;;;;;6207277;23;20114;-87
2022/03/11 21:03:22;;;;;;;13.52;7.55;;;;;;;;;;6204386;23;20073;-87
2022/03/11 21:05:48;;;;;;;13.85;7.28;;;;;;;;;;6177624;23;20016;-86
2022/03/11 21:08:16;;;;;;;11.70;6.90;;;;;;;;;;6155492;23;20016;-86
2022/03/11 21:10:44;;;;;;;19.35;7.22;;;;;;;;;;6176589;23;20047;-87
2022/03/11 21:13:13;;;;;;;12.82;6.68;;;;;;;;;;6154348;23;20444;-87
2022/03/11 21:15:40;;;;;;;16.65;7.30;;;;;;;;;;6200443;23;20016;-87
2022/03/11 21:18:07;;;;;;;10.65;6.90;;;;;;;;;;6141726;23;20017;-87
2022/03/11 21:20:57;;;;;;;15.00;7.00;;;;;;;;;;6194250;23;20031;-88
2022/03/11 21:23:30;;;;;;;10.13;6.80;;;;;;;;;;6171823;23;20028;-88
2022/03/11 21:25:59;;;;;;;12.23;6.25;;;;;;;;;;6169217;23;20024;-91
2022/03/11 21:28:34;;;;;;;14.55;7.25;;;;;;;;;;6172101;23;20024;-88
2022/03/11 21:38:10;;;;;;;11.52;6.47;;;;;;;;;;6208694;23;20050;-88
2022/03/11 21:40:36;;;;;;;17.30;7.45;;;;;;;;;;6145854;23;20078;-87
2022/03/11 21:43:20;;;;;;;11.18;5.95;;;;;;;;;;6147505;23;20028;-88
2022/03/11 21:51:07;;;;;;;;;;;;;;;;;;6174920;23;20465;-88
2022/03/11 21:53:34;;;;;;;14.48;6.30;;;;;;;;;;6149688;23;19998;-88
2022/03/11 21:56:00;;;;;;;17.77;6.57;;;;;;;;;;6199081;23;20119;-88
2022/03/11 21:58:26;;;;;;;10.63;6.97;;;;;;;;;;6172745;23;20142;-89
2022/03/11 22:01:02;;;;;;;9.40;6.40;;;;;;;;;;6174827;23;20294;-87
2022/03/11 22:03:44;;;;;;;15.18;6.47;;;;;;;;;;6171489;23;20024;-88
2022/03/11 22:09:38;;;;;;;12.63;6.95;;;;;;;;;;6169050;23;20029;-88
2022/03/11 22:12:16;;;;;;;;;;;;;;;;;;6201315;23;20606;-89
2022/03/11 22:14:54;;;;;;;13.50;6.60;;;;;;;;;;6172284;23;19916;-89
2022/03/11 22:17:29;;;;;;;15.80;6.63;;;;;;;;;;6200883;23;20103;-89
2022/03/11 22:20:03;;;;;;;16.00;6.63;;;;;;;;;;6171221;23;20028;-88
2022/03/11 22:22:54;;;;;;;11.82;6.47;;;;;;;;;;6175729;23;20033;-89
2022/03/11 22:25:20;;;;;;;13.73;7.68;;;;;;;;;;6199272;23;20468;-88
2022/03/11 22:27:59;;;;;;;15.30;6.60;;;;;;;;;;6202838;23;20024;-87
2022/03/11 22:34:06;;;;;;;16.83;6.93;;;;;;;;;;6110388;23;20037;-88
2022/03/11 22:45:08;;;;;;;9.77;7.20;;;;;;;;;;6194887;23;20124;-88
2022/03/11 22:54:36;;;;;;;15.98;7.30;;;;;;;;;;6202589;23;20031;-88
2022/03/11 22:57:25;;;;;;;12.98;7.55;;;;;;;;;;6206603;23;20088;-89
2022/03/11 23:00:01;;;;;;;11.45;6.88;;;;;;;;;;6223974;23;20035;-88
2022/03/11 23:05:12;;;;;;;19.15;7.75;;;;;;;;;;6178358;23;20349;-88
2022/03/11 23:10:44;;;;;;;13.02;6.72;;;;;;;;;;6177391;23;20108;-89
2022/03/11 23:13:10;;;;;;;12.27;7.45;;;;;;;;;;6201134;23;20532;-88
2022/03/11 23:15:38;;;;;;;17.15;7.20;;;;;;;;;;6176568;23;20034;-87
2022/03/11 23:18:08;;;;;;;15.10;7.80;;;;;;;;;;6176805;23;20032;-89
2022/03/11 23:21:01;;;;;;;17.52;7.70;;;6.10;99.90;;;;;;6189971;22;20102;-88
2022/03/11 23:23:28;;;;;;;10.85;7.90;;;;;;;;;;6237410;22;20042;-88
2022/03/11 23:25:54;;;;;;;13.32;7.80;;;;;;;;;;6214693;22;20452;-87
2022/03/11 23:31:06;;;;;;;12.20;7.82;;;;;;;;;;6237542;22;20059;-88
2022/03/11 23:33:35;;;;;;;18.40;8.55;;;;;;;;;;6192867;22;20028;-87
2022/03/11 23:36:10;;;;;;;13.80;7.53;;;;;;;;;;6218766;22;20015;-87
2022/03/11 23:38:41;;;;;;;13.38;8.02;;;;;;;;;;6190820;22;20098;-88
2022/03/11 23:41:11;;;;;;;11.45;7.60;;;;;;;;;;6215612;22;20347;-88
2022/03/11 23:43:39;;;;;;;12.52;7.65;;;;;;;;;;6240327;22;20558;-87
2022/03/11 23:46:07;;;;;;;16.33;6.95;;;;;;;;;;6269200;22;20016;-88
2022/03/11 23:48:34;;;;;;;12.93;8.10;;;;;;;;;;6267610;22;20344;-88
2022/03/11 23:51:01;;;;;;;14.75;8.00;;;;;;;;;;6242935;22;20099;-88
2022/03/11 23:53:27;;;;;;;15.02;7.28;;;;;;;;;;6242238;22;20020;-88
2022/03/11 23:55:54;;;;;;;11.73;7.57;;;;;;;;;;6242227;22;20020;-88
2022/03/11 23:58:20;;;;;;;10.77;7.90;;;;;;;;;;6269373;22;20391;-87
